createdAt,value
2018-10-11T00:02:21.541Z,16.22
2018-10-11T00:04:49.049Z,16.21
2018-10-11T00:07:16.557Z,16.18
2018-10-11T00:09:44.522Z,16.14
2018-10-11T00:12:12.731Z,16.15
2018-10-11T00:14:40.225Z,16.28
2018-10-11T00:17:09.426Z,16.40
2018-10-11T00:19:37.415Z,16.46
2018-10-11T00:22:04.913Z,16.50
2018-10-11T00:24:33.045Z,16.55
2018-10-11T00:27:00.590Z,16.62
2018-10-11T00:29:28.146Z,16.64
2018-10-11T00:31:56.111Z,16.70
2018-10-11T00:34:23.653Z,16.77
2018-10-11T00:36:51.166Z,16.90
2018-10-11T00:39:18.665Z,17.01
2018-10-11T00:41:46.586Z,17.10
2018-10-11T00:44:17.423Z,17.15
2018-10-11T00:46:45.854Z,17.20
2018-10-11T00:49:13.904Z,17.21
2018-10-11T00:51:41.446Z,17.23
2018-10-11T00:54:09.333Z,17.19
2018-10-11T00:56:37.242Z,17.19
2018-10-11T00:59:04.757Z,17.26
2018-10-11T01:01:33.266Z,17.27
2018-10-11T01:04:00.786Z,17.26
2018-10-11T01:06:28.911Z,17.25
2018-10-11T01:08:56.454Z,17.18
2018-10-11T01:11:24.703Z,17.07
2018-10-11T01:13:52.198Z,16.91
2018-10-11T01:16:20.193Z,16.70
2018-10-11T01:18:47.713Z,16.50
2018-10-11T01:21:15.214Z,16.30
2018-10-11T01:23:42.790Z,16.14
2018-10-11T01:26:10.296Z,15.99
2018-10-11T01:28:37.793Z,15.88
2018-10-11T01:31:10.350Z,15.82
2018-10-11T01:33:38.353Z,15.86
2018-10-11T01:36:05.882Z,15.87
2018-10-11T01:38:33.449Z,15.88
2018-10-11T01:41:00.990Z,15.85
2018-10-11T01:43:29.043Z,15.78
2018-10-11T01:45:56.618Z,15.68
2018-10-11T01:48:24.130Z,15.58
2018-10-11T01:50:51.662Z,15.47
2018-10-11T01:53:19.618Z,15.35
2018-10-11T01:55:47.130Z,15.22
2018-10-11T01:58:14.641Z,15.12
2018-10-11T02:00:42.176Z,15.06
2018-10-11T02:03:10.085Z,15.02
2018-10-11T02:05:37.641Z,14.96
2018-10-11T02:08:06.341Z,14.99
2018-10-11T02:10:34.318Z,15.00
2018-10-11T02:13:01.831Z,15.04
2018-10-11T02:15:30.178Z,15.10
2018-10-11T02:17:58.365Z,15.20
2018-10-11T02:20:26.673Z,15.36
2018-10-11T02:22:54.181Z,15.58
2018-10-11T02:25:21.736Z,15.74
2018-10-11T02:27:49.606Z,15.75
2018-10-11T02:30:17.172Z,15.70
2018-10-11T02:32:44.755Z,15.59
2018-10-11T02:35:12.967Z,15.47
2018-10-11T02:37:41.148Z,15.35
2018-10-11T02:40:08.712Z,15.24
2018-10-11T02:42:36.253Z,15.17
2018-10-11T02:45:03.844Z,15.13
2018-10-11T02:47:31.731Z,15.12
2018-10-11T02:49:59.321Z,15.13
2018-10-11T02:52:26.891Z,15.19
2018-10-11T02:54:54.577Z,15.32
2018-10-11T02:57:22.166Z,15.42
2018-10-11T02:59:49.738Z,15.45
2018-10-11T03:02:17.301Z,15.40
2018-10-11T03:04:45.371Z,15.32
2018-10-11T03:07:13.073Z,15.20
2018-10-11T03:09:41.406Z,15.08
2018-10-11T03:12:09.360Z,14.98
2018-10-11T03:14:36.945Z,14.89
2018-10-11T03:17:04.484Z,14.82
2018-10-11T03:19:32.040Z,14.78
2018-10-11T03:22:00.028Z,14.75
2018-10-11T03:24:27.622Z,14.71
2018-10-11T03:26:55.205Z,14.67
2018-10-11T03:29:22.780Z,14.65
2018-10-11T03:31:50.657Z,14.63
2018-10-11T03:34:18.246Z,14.57
2018-10-11T03:36:45.816Z,14.50
2018-10-11T03:39:13.407Z,14.43
2018-10-11T03:41:41.449Z,14.40
2018-10-11T03:44:09.076Z,14.34
2018-10-11T03:46:36.800Z,14.26
2018-10-11T03:49:04.316Z,14.20
2018-10-11T03:51:32.333Z,14.14
2018-10-11T03:54:00.006Z,14.07
2018-10-11T03:56:27.810Z,14.00
2018-10-11T03:58:55.601Z,13.93
2018-10-11T04:01:23.623Z,13.87
2018-10-11T04:03:51.181Z,13.79
2018-10-11T04:06:18.766Z,13.72
2018-10-11T04:08:46.781Z,13.66
2018-10-11T04:11:14.356Z,13.64
2018-10-11T04:13:41.906Z,13.61
2018-10-11T04:16:09.453Z,13.59
2018-10-11T04:18:37.456Z,13.55
2018-10-11T04:21:05.017Z,13.51
2018-10-11T04:23:32.648Z,13.51
2018-10-11T04:26:01.285Z,13.49
2018-10-11T04:28:29.559Z,13.46
2018-10-11T04:30:57.859Z,13.44
2018-10-11T04:33:26.144Z,13.44
2018-10-11T04:35:54.463Z,13.43
2018-10-11T04:38:22.043Z,13.43
2018-10-11T04:40:50.099Z,13.42
2018-10-11T04:43:17.979Z,13.40
2018-10-11T04:45:45.472Z,13.38
2018-10-11T04:48:13.855Z,13.35
2018-10-11T04:50:43.055Z,13.32
2018-10-11T04:53:11.005Z,13.26
2018-10-11T04:55:38.997Z,13.19
2018-10-11T04:58:06.586Z,13.14
2018-10-11T05:00:34.205Z,13.09
2018-10-11T05:03:02.181Z,13.03
2018-10-11T05:05:29.781Z,12.96
2018-10-11T05:07:57.337Z,12.90
2018-10-11T05:10:25.286Z,12.86
2018-10-11T05:12:52.848Z,12.82
2018-10-11T05:15:20.393Z,12.80
2018-10-11T05:17:48.279Z,12.77
2018-10-11T05:20:15.910Z,12.79
2018-10-11T05:22:43.561Z,12.76
2018-10-11T05:25:11.508Z,12.70
2018-10-11T05:27:39.049Z,12.63
2018-10-11T05:30:06.636Z,12.59
2018-10-11T05:32:34.637Z,12.55
2018-10-11T05:35:02.261Z,12.53
2018-10-11T05:37:30.249Z,12.52
2018-10-11T05:39:58.377Z,12.49
2018-10-11T05:42:25.948Z,12.47
2018-10-11T05:44:54.044Z,12.49
2018-10-11T05:47:22.077Z,12.51
2018-10-11T05:49:49.640Z,12.53
2018-10-11T05:52:17.260Z,12.55
2018-10-11T05:54:45.285Z,12.55
2018-10-11T05:57:12.887Z,12.56
2018-10-11T05:59:40.512Z,12.53
2018-10-11T06:02:08.419Z,12.52
2018-10-11T06:04:36.256Z,12.51
2018-10-11T06:07:03.879Z,12.55
2018-10-11T06:09:31.879Z,12.60
2018-10-11T06:11:59.475Z,12.67
2018-10-11T06:14:27.044Z,12.72
2018-10-11T06:16:55.072Z,12.80
2018-10-11T06:19:22.625Z,12.98
2018-10-11T06:21:50.216Z,13.11
2018-10-11T06:24:18.244Z,13.18
2018-10-11T06:26:46.308Z,13.23
2018-10-11T06:29:17.620Z,13.25
2018-10-11T06:31:45.501Z,13.28
2018-10-11T06:34:13.893Z,13.32
2018-10-11T06:36:43.659Z,13.34
2018-10-11T06:39:12.281Z,13.39
2018-10-11T06:41:39.923Z,13.42
2018-10-11T06:44:07.527Z,13.42
2018-10-11T06:46:35.408Z,13.42
2018-10-11T06:49:03.024Z,13.44
2018-10-11T06:51:30.595Z,13.48
2018-10-11T06:53:58.552Z,13.48
2018-10-11T06:56:26.128Z,13.53
2018-10-11T06:58:53.693Z,13.60
2018-10-11T07:01:21.583Z,13.70
2018-10-11T07:03:49.142Z,13.87
2018-10-11T07:06:17.365Z,14.22
2018-10-11T07:08:46.013Z,14.62
2018-10-11T07:11:18.177Z,15.00
2018-10-11T07:13:46.241Z,15.33
2018-10-11T07:16:13.824Z,15.64
2018-10-11T07:21:10.817Z,16.18
2018-10-11T07:23:38.384Z,16.46
2018-10-11T07:26:05.975Z,16.67
2018-10-11T07:28:34.577Z,16.84
2018-10-11T07:31:02.145Z,16.98
2018-10-11T07:33:29.737Z,17.16
2018-10-11T07:35:57.644Z,17.32
2018-10-11T07:38:25.203Z,17.48
2018-10-11T07:40:53.552Z,17.64
2018-10-11T07:43:21.472Z,17.81
2018-10-11T07:45:49.082Z,17.96
2018-10-11T07:48:16.667Z,18.11
2018-10-11T07:50:44.620Z,18.27
2018-10-11T07:53:12.191Z,18.43
2018-10-11T07:55:39.830Z,18.56
2018-10-11T07:58:07.802Z,18.63
2018-10-11T08:00:35.417Z,18.70
2018-10-11T08:03:02.964Z,18.77
2018-10-11T08:05:30.972Z,18.85
2018-10-11T08:07:58.516Z,18.91
2018-10-11T08:10:26.261Z,18.98
2018-10-11T08:12:55.234Z,19.05
2018-10-11T08:15:22.895Z,19.15
2018-10-11T08:17:50.699Z,19.27
2018-10-11T08:20:18.450Z,19.38
2018-10-11T08:22:46.938Z,19.48
2018-10-11T08:25:14.702Z,19.59
2018-10-11T08:27:42.428Z,19.72
2018-10-11T08:30:09.993Z,19.89
2018-10-11T08:32:37.693Z,20.03
2018-10-11T08:35:05.612Z,20.15
2018-10-11T08:37:33.259Z,20.28
2018-10-11T08:40:00.993Z,20.39
2018-10-11T08:42:29.058Z,20.48
2018-10-11T08:44:56.621Z,20.51
2018-10-11T08:47:25.155Z,20.49
2018-10-11T08:49:53.640Z,20.46
2018-10-11T08:52:21.207Z,20.47
2018-10-11T08:54:51.922Z,20.46
2018-10-11T08:57:20.441Z,20.51
2018-10-11T08:59:48.803Z,20.58
2018-10-11T09:02:16.760Z,20.69
2018-10-11T09:04:45.769Z,20.83
2018-10-11T09:07:13.300Z,20.99
2018-10-11T09:09:42.237Z,21.14
2018-10-11T09:12:10.376Z,21.23
2018-10-11T09:14:38.876Z,21.32
2018-10-11T09:17:06.948Z,21.38
2018-10-11T09:19:35.555Z,21.43
2018-10-11T09:22:03.152Z,21.48
2018-10-11T09:24:31.592Z,21.54
2018-10-11T09:26:59.246Z,21.63
2018-10-11T09:29:27.852Z,21.76
2018-10-11T09:31:56.505Z,21.86
2018-10-11T09:34:24.046Z,22.03
2018-10-11T09:36:51.624Z,22.35
2018-10-11T09:39:20.313Z,22.83
2018-10-11T09:41:48.926Z,23.50
2018-10-11T09:44:16.468Z,24.12
2018-10-11T09:46:44.369Z,24.80
2018-10-11T09:49:11.915Z,25.49
2018-10-11T09:51:39.518Z,26.31
2018-10-11T09:54:09.310Z,27.02
2018-10-11T09:56:36.883Z,27.69
2018-10-11T09:59:05.908Z,28.38
2018-10-11T10:01:38.945Z,29.02
2018-10-11T10:04:06.525Z,29.60
2018-10-11T10:06:34.701Z,30.06
2018-10-11T10:09:02.689Z,30.55
2018-10-11T10:11:31.550Z,31.01
2018-10-11T10:14:00.009Z,31.26
2018-10-11T10:16:29.459Z,31.27
2018-10-11T10:18:57.071Z,31.51
2018-10-11T10:21:24.672Z,31.79
2018-10-11T10:23:52.621Z,31.92
2018-10-11T10:26:20.264Z,32.11
2018-10-11T10:28:47.873Z,32.20
2018-10-11T10:31:15.792Z,32.19
2018-10-11T10:33:44.507Z,32.14
2018-10-11T10:36:12.108Z,32.23
2018-10-11T10:38:45.529Z,32.08
2018-10-11T10:41:13.668Z,31.94
2018-10-11T10:43:41.223Z,31.74
2018-10-11T10:46:09.220Z,31.33
2018-10-11T10:48:37.402Z,30.66
2018-10-11T10:51:05.128Z,30.22
2018-10-11T10:53:33.153Z,30.33
2018-10-11T10:56:01.461Z,30.56
2018-10-11T10:58:29.309Z,30.73
2018-10-11T11:00:59.235Z,30.82
2018-10-11T11:03:26.800Z,30.38
2018-10-11T11:05:54.340Z,29.98
2018-10-11T11:08:23.208Z,29.87
2018-10-11T11:10:51.380Z,29.60
2018-10-11T11:13:19.054Z,29.82
2018-10-11T11:15:47.142Z,30.18
2018-10-11T11:18:14.681Z,30.28
2018-10-11T11:20:44.860Z,29.98
2018-10-11T11:23:13.859Z,29.69
2018-10-11T11:25:41.552Z,29.69
2018-10-11T11:28:09.117Z,29.96
2018-10-11T11:30:37.241Z,30.33
2018-10-11T11:33:05.911Z,30.88
2018-10-11T11:35:33.474Z,31.64
2018-10-11T11:38:02.448Z,32.32
2018-10-11T11:40:30.106Z,32.73
2018-10-11T11:42:58.402Z,32.59
2018-10-11T11:45:26.317Z,32.15
2018-10-11T11:47:53.971Z,31.84
2018-10-11T11:50:23.296Z,31.66
2018-10-11T11:52:52.908Z,31.29
2018-10-11T11:55:20.489Z,30.99
2018-10-11T11:57:49.415Z,31.00
2018-10-11T12:00:17.472Z,31.20
2018-10-11T12:02:45.116Z,31.49
2018-10-11T12:05:12.719Z,31.76
2018-10-11T12:07:41.232Z,31.82
2018-10-11T12:10:09.409Z,31.68
2018-10-11T12:12:36.953Z,31.68
2018-10-11T12:15:05.625Z,31.75
2018-10-11T12:17:33.225Z,31.43
2018-10-11T12:20:00.931Z,30.84
2018-10-11T12:22:29.838Z,30.45
2018-10-11T12:24:57.451Z,30.19
2018-10-11T12:27:26.487Z,29.92
2018-10-11T12:29:54.576Z,29.66
2018-10-11T12:32:23.341Z,29.49
2018-10-11T12:34:50.881Z,29.15
2018-10-11T12:37:18.921Z,28.69
2018-10-11T12:39:46.479Z,28.29
2018-10-11T12:42:14.057Z,27.90
2018-10-11T12:44:42.093Z,27.59
2018-10-11T12:47:09.740Z,27.37
2018-10-11T12:49:40.579Z,27.21
2018-10-11T12:52:05.371Z,27.11
2018-10-11T12:54:33.325Z,27.02
2018-10-11T12:57:01.009Z,26.92
2018-10-11T12:59:28.904Z,26.83
2018-10-11T13:01:56.541Z,26.75
2018-10-11T13:04:24.101Z,26.68
2018-10-11T13:06:52.102Z,26.60
2018-10-11T13:09:22.681Z,26.48
2018-10-11T13:11:50.537Z,26.39
2018-10-11T13:14:18.532Z,26.33
2018-10-11T13:16:46.184Z,26.24
2018-10-11T13:19:13.798Z,26.20
2018-10-11T13:21:41.754Z,26.18
2018-10-11T13:24:11.161Z,26.16
2018-10-11T13:26:38.777Z,26.18
2018-10-11T13:29:06.796Z,26.18
2018-10-11T13:31:35.289Z,26.15
2018-10-11T13:34:02.912Z,26.14
2018-10-11T13:36:32.014Z,26.14
2018-10-11T13:38:59.576Z,26.14
2018-10-11T13:41:27.203Z,26.13
2018-10-11T13:43:56.820Z,26.05
2018-10-11T13:46:24.476Z,25.95
2018-10-11T13:48:53.289Z,25.84
2018-10-11T13:51:21.982Z,25.75
2018-10-11T13:53:55.479Z,25.67
2018-10-11T13:56:20.253Z,25.63
2018-10-11T13:58:47.838Z,25.56
2018-10-11T14:01:17.288Z,25.58
2018-10-11T14:03:46.106Z,25.66
2018-10-11T14:06:15.465Z,25.75
2018-10-11T14:08:43.046Z,25.83
2018-10-11T14:11:11.103Z,25.91
2018-10-11T14:13:39.743Z,25.94
2018-10-11T14:16:08.225Z,25.97
2018-10-11T14:18:36.620Z,26.02
2018-10-11T14:21:06.665Z,26.05
2018-10-11T14:23:34.246Z,26.04
2018-10-11T14:26:02.273Z,26.09
2018-10-11T14:28:32.896Z,26.13
2018-10-11T14:31:02.236Z,26.06
2018-10-11T14:33:30.255Z,25.88
2018-10-11T14:35:57.881Z,25.66
2018-10-11T14:38:25.512Z,25.42
2018-10-11T14:40:54.089Z,25.21
2018-10-11T14:43:21.722Z,25.06
2018-10-11T14:45:49.301Z,24.96
2018-10-11T14:48:17.415Z,24.91
2018-10-11T14:50:45.881Z,24.88
2018-10-11T14:53:13.470Z,24.86
2018-10-11T14:55:45.683Z,24.78
2018-10-11T14:58:14.620Z,24.62
2018-10-11T15:00:43.066Z,24.45
2018-10-11T15:03:11.189Z,24.26
2018-10-11T15:05:38.796Z,24.08
2018-10-11T15:08:06.594Z,23.95
2018-10-11T15:10:34.591Z,23.88
2018-10-11T15:13:03.967Z,23.84
2018-10-11T15:15:31.802Z,23.81
2018-10-11T15:17:59.820Z,23.78
2018-10-11T15:20:27.621Z,23.79
2018-10-11T15:22:55.940Z,23.80
2018-10-11T15:25:23.916Z,23.82
2018-10-11T15:27:53.679Z,23.84
2018-10-11T15:30:23.727Z,23.84
2018-10-11T15:32:51.620Z,23.81
2018-10-11T15:35:19.298Z,23.77
2018-10-11T15:37:47.476Z,23.72
2018-10-11T15:40:15.453Z,23.65
2018-10-11T15:42:43.638Z,23.57
2018-10-11T15:45:11.186Z,23.49
2018-10-11T15:47:40.370Z,23.42
2018-10-11T15:50:09.122Z,23.33
2018-10-11T15:52:36.798Z,23.24
2018-10-11T15:55:06.751Z,23.17
2018-10-11T15:57:34.325Z,23.10
2018-10-11T16:00:03.611Z,23.03
2018-10-11T16:02:31.808Z,22.96
2018-10-11T16:04:59.364Z,22.91
2018-10-11T16:07:27.522Z,22.86
2018-10-11T16:09:55.356Z,22.78
2018-10-11T16:12:23.618Z,22.68
2018-10-11T16:14:52.769Z,22.58
2018-10-11T16:17:20.788Z,22.49
2018-10-11T16:19:48.496Z,22.41
2018-10-11T16:22:16.910Z,22.33
2018-10-11T16:24:45.615Z,22.29
2018-10-11T16:27:13.176Z,22.25
2018-10-11T16:29:40.956Z,22.21
2018-10-11T16:32:08.876Z,22.17
2018-10-11T16:34:36.446Z,22.17
2018-10-11T16:37:05.628Z,22.14
2018-10-11T16:39:33.661Z,22.10
2018-10-11T16:42:01.202Z,22.05
2018-10-11T16:44:28.920Z,22.00
2018-10-11T16:46:58.090Z,21.96
2018-10-11T16:49:26.272Z,21.91
2018-10-11T16:51:56.840Z,21.87
2018-10-11T16:54:26.392Z,21.84
2018-10-11T16:56:54.475Z,21.80
2018-10-11T16:59:23.357Z,21.79
2018-10-11T17:01:53.061Z,21.76
2018-10-11T17:04:21.304Z,21.75
2018-10-11T17:06:50.372Z,21.74
2018-10-11T17:09:19.459Z,21.74
2018-10-11T17:11:47.020Z,21.73
2018-10-11T17:14:16.214Z,21.70
2018-10-11T17:16:44.290Z,21.67
2018-10-11T17:19:15.618Z,21.65
2018-10-11T17:21:48.018Z,21.62
2018-10-11T17:24:16.535Z,21.57
2018-10-11T17:26:58.803Z,21.54
2018-10-11T17:29:27.607Z,21.50
2018-10-11T17:31:55.936Z,21.45
2018-10-11T17:34:24.101Z,21.41
2018-10-11T17:36:52.117Z,21.36
2018-10-11T17:39:19.687Z,21.33
2018-10-11T17:41:47.295Z,21.31
2018-10-11T17:44:16.345Z,21.28
2018-10-11T17:46:43.934Z,21.24
2018-10-11T17:49:12.074Z,21.22
2018-10-11T17:51:41.318Z,21.19
2018-10-11T17:54:11.684Z,21.14
2018-10-11T17:56:40.084Z,21.10
2018-10-11T17:59:07.683Z,21.06
2018-10-11T18:01:37.076Z,21.03
2018-10-11T18:04:04.960Z,21.00
2018-10-11T18:06:32.578Z,20.95
2018-10-11T18:09:01.729Z,20.91
2018-10-11T18:11:29.573Z,20.85
2018-10-11T18:13:58.563Z,20.81
2018-10-11T18:16:29.801Z,20.77
2018-10-11T18:18:57.888Z,20.74
2018-10-11T18:21:27.548Z,20.73
2018-10-11T18:23:56.068Z,20.73
2018-10-11T18:26:26.928Z,20.74
2018-10-11T18:28:54.476Z,20.75
2018-10-11T18:31:22.077Z,20.75
2018-10-11T18:33:51.092Z,20.75
2018-10-11T18:36:19.492Z,20.75
2018-10-11T18:38:47.095Z,20.72
2018-10-11T18:41:15.013Z,20.67
2018-10-11T18:43:44.014Z,20.61
2018-10-11T18:46:11.659Z,20.56
2018-10-11T18:48:40.689Z,20.54
2018-10-11T18:51:09.677Z,20.54
2018-10-11T18:53:37.644Z,20.50
2018-10-11T18:56:08.685Z,20.48
2018-10-11T18:58:36.845Z,20.43
2018-10-11T19:01:04.373Z,20.37
2018-10-11T19:03:32.369Z,20.29
2018-10-11T19:06:01.406Z,20.21
2018-10-11T19:08:29.379Z,20.13
2018-10-11T19:10:57.488Z,20.03
2018-10-11T19:13:25.341Z,19.95
2018-10-11T19:15:54.062Z,19.82
2018-10-11T19:18:22.816Z,19.78
2018-10-11T19:20:50.555Z,19.70
2018-10-11T19:23:18.813Z,19.65
2018-10-11T19:25:48.702Z,19.59
2018-10-11T19:28:16.502Z,19.57
2018-10-11T19:30:45.747Z,19.55
2018-10-11T19:33:14.602Z,19.48
2018-10-11T19:35:44.505Z,19.41
2018-10-11T19:38:12.102Z,19.35
2018-10-11T19:40:40.077Z,19.35
2018-10-11T19:43:07.641Z,19.34
2018-10-11T19:45:35.215Z,19.39
2018-10-11T19:48:04.436Z,19.42
2018-10-11T19:50:33.456Z,19.47
2018-10-11T19:53:02.526Z,19.52
2018-10-11T19:55:30.497Z,19.54
2018-10-11T19:58:00.612Z,19.58
2018-10-11T20:00:28.167Z,19.64
2018-10-11T20:02:56.721Z,19.69
2018-10-11T20:05:29.236Z,19.72
2018-10-11T20:07:58.230Z,19.72
2018-10-11T20:10:26.422Z,19.74
2018-10-11T20:12:55.906Z,19.74
2018-10-11T20:15:23.653Z,19.73
2018-10-11T20:17:52.664Z,19.72
2018-10-11T20:20:21.714Z,19.71
2018-10-11T20:22:49.263Z,19.71
2018-10-11T20:25:18.206Z,19.69
2018-10-11T20:27:45.789Z,19.67
2018-10-11T20:30:13.369Z,19.67
2018-10-11T20:32:41.263Z,19.67
2018-10-11T20:35:09.683Z,19.67
2018-10-11T20:37:38.304Z,19.67
2018-10-11T20:40:06.572Z,19.69
2018-10-11T20:42:35.627Z,19.70
2018-10-11T20:45:04.652Z,19.71
2018-10-11T20:47:32.569Z,19.73
2018-10-11T20:50:01.921Z,19.74
2018-10-11T20:52:29.712Z,19.75
2018-10-11T20:54:59.665Z,19.72
2018-10-11T20:57:27.293Z,19.71
2018-10-11T20:59:57.305Z,19.71
2018-10-11T21:02:26.253Z,19.68
2018-10-11T21:04:53.822Z,19.66
2018-10-11T21:07:27.144Z,19.66
2018-10-11T21:09:55.840Z,19.69
2018-10-11T21:12:23.433Z,19.73
2018-10-11T21:14:52.545Z,19.75
2018-10-11T21:17:20.484Z,19.75
2018-10-11T21:19:48.085Z,19.73
2018-10-11T21:22:15.730Z,19.71
2018-10-11T21:24:44.280Z,19.70
2018-10-11T21:27:12.549Z,19.70
2018-10-11T21:29:40.625Z,19.72
2018-10-11T21:32:08.603Z,19.70
2018-10-11T21:34:36.195Z,19.68
2018-10-11T21:37:04.303Z,19.68
2018-10-11T21:39:32.325Z,19.64
2018-10-11T21:41:59.848Z,19.59
2018-10-11T21:44:28.063Z,19.56
2018-10-11T21:46:55.924Z,19.55
2018-10-11T21:49:23.493Z,19.55
2018-10-11T21:51:52.689Z,19.57
2018-10-11T21:54:20.552Z,19.56
2018-10-11T21:56:48.096Z,19.50
2018-10-11T21:59:15.680Z,19.47
2018-10-11T22:01:46.638Z,19.47
2018-10-11T22:04:14.172Z,19.49
2018-10-11T22:06:41.736Z,19.47
2018-10-11T22:09:09.800Z,19.46
2018-10-11T22:11:37.460Z,19.47
2018-10-11T22:14:06.504Z,19.50
2018-10-11T22:16:35.317Z,19.52
2018-10-11T22:19:03.285Z,19.54
2018-10-11T22:21:30.840Z,19.53
2018-10-11T22:23:58.409Z,19.53
2018-10-11T22:26:26.001Z,19.56
2018-10-11T22:28:55.924Z,19.58
2018-10-11T22:31:23.496Z,19.60
2018-10-11T22:33:51.088Z,19.56
2018-10-11T22:36:18.996Z,19.56
2018-10-11T22:38:46.551Z,19.54
2018-10-11T22:41:14.108Z,19.52
2018-10-11T22:43:44.944Z,19.52
2018-10-11T22:46:13.131Z,19.54
2018-10-11T22:48:40.692Z,19.55
2018-10-11T22:51:08.619Z,19.58
2018-10-11T22:53:36.256Z,19.58
2018-10-11T22:56:03.808Z,19.56
2018-10-11T22:58:31.346Z,19.54
2018-10-11T23:00:59.276Z,19.51
2018-10-11T23:03:26.859Z,19.52
2018-10-11T23:05:54.438Z,19.55
2018-10-11T23:08:21.972Z,19.59
2018-10-11T23:10:49.979Z,19.62
2018-10-11T23:13:17.608Z,19.64
2018-10-11T23:15:45.204Z,19.68
2018-10-11T23:18:13.626Z,19.72
2018-10-11T23:20:42.259Z,19.75
2018-10-11T23:25:30.756Z,19.81
2018-10-11T23:27:58.305Z,19.86
2018-10-11T23:30:26.288Z,19.89
2018-10-11T23:32:53.848Z,19.92
2018-10-11T23:35:21.380Z,19.92
2018-10-11T23:37:49.278Z,19.94
2018-10-11T23:40:17.687Z,19.92
2018-10-11T23:42:45.232Z,19.91
2018-10-11T23:45:13.521Z,19.92
2018-10-11T23:47:42.588Z,19.90
2018-10-11T23:50:10.175Z,19.89
2018-10-11T23:52:37.739Z,19.87
2018-10-11T23:55:05.564Z,19.84
2018-10-11T23:57:33.108Z,19.83
